createdAt,value
2022-08-20T00:01:12.257Z,98665.63
2022-08-20T00:03:44.812Z,98669.13
2022-08-20T00:06:23.741Z,98669.19
2022-08-20T00:08:51.629Z,98661.72
2022-08-20T00:11:24.414Z,98664.47
2022-08-20T00:13:58.107Z,98662.81
2022-08-20T00:16:26.925Z,98665.25
2022-08-20T00:18:54.273Z,98674.28
2022-08-20T00:21:23.188Z,98673.47
2022-08-20T00:23:52.722Z,98677.41
2022-08-20T00:26:20.683Z,98677.00
2022-08-20T00:28:48.142Z,98677.78
2022-08-20T00:31:19.707Z,98679.34
2022-08-20T00:33:47.929Z,98677.75
2022-08-20T00:36:17.632Z,98673.03
2022-08-20T00:38:46.597Z,98667.47
2022-08-20T00:41:25.942Z,98674.63
2022-08-20T00:44:21.905Z,98667.53
2022-08-20T00:46:51.053Z,98670.69
2022-08-20T00:49:24.755Z,98673.78
2022-08-20T00:52:12.954Z,98677.25
2022-08-20T00:54:51.744Z,98681.97
2022-08-20T00:57:25.000Z,98687.91
2022-08-20T00:59:53.322Z,98687.88
2022-08-20T01:02:25.438Z,98687.06
2022-08-20T01:04:55.053Z,98690.25
2022-08-20T01:07:35.630Z,98691.06
2022-08-20T01:10:19.256Z,98694.59
2022-08-20T01:12:48.225Z,98698.09
2022-08-20T01:15:30.747Z,98697.34
2022-08-20T01:18:01.849Z,98698.19
2022-08-20T01:20:37.348Z,98691.88
2022-08-20T01:23:34.741Z,98694.22
2022-08-20T01:26:21.308Z,98697.34
2022-08-20T01:28:58.597Z,98697.34
2022-08-20T01:31:33.662Z,98692.59
2022-08-20T01:34:04.295Z,98691.38
2022-08-20T01:36:45.549Z,98703.97
2022-08-20T01:39:18.924Z,98702.38
2022-08-20T01:41:51.865Z,98703.97
2022-08-20T01:44:20.930Z,98705.16
2022-08-20T01:46:52.573Z,98705.91
2022-08-20T01:49:34.863Z,98703.56
2022-08-20T01:52:08.869Z,98706.69
2022-08-20T01:54:36.042Z,98711.78
2022-08-20T01:57:17.853Z,98714.13
2022-08-20T02:00:19.707Z,98719.28
2022-08-20T02:03:08.655Z,98717.28
2022-08-20T02:05:36.190Z,98714.09
2022-08-20T02:08:03.977Z,98713.72
2022-08-20T02:10:32.350Z,98719.97
2022-08-20T02:13:00.663Z,98724.72
2022-08-20T02:15:34.526Z,98727.91
2022-08-20T02:18:13.126Z,98728.66
2022-08-20T02:20:41.765Z,98731.41
2022-08-20T02:23:12.177Z,98734.19
2022-08-20T02:25:43.548Z,98731.00
2022-08-20T02:28:14.677Z,98734.50
2022-08-20T02:30:48.495Z,98738.75
2022-08-20T02:33:19.477Z,98739.53
2022-08-20T02:35:51.041Z,98738.69
2022-08-20T02:38:18.381Z,98729.19
2022-08-20T02:40:46.617Z,98730.78
2022-08-20T02:43:14.419Z,98735.97
2022-08-20T02:45:43.699Z,98731.31
2022-08-20T02:48:21.244Z,98733.63
2022-08-20T02:51:01.329Z,98731.25
2022-08-20T02:53:32.259Z,98727.69
2022-08-20T02:56:00.305Z,98719.03
2022-08-20T02:58:27.669Z,98723.47
2022-08-20T03:00:56.650Z,98726.22
2022-08-20T03:03:24.303Z,98721.84
2022-08-20T03:05:56.907Z,98720.59
2022-08-20T03:08:25.362Z,98720.97
2022-08-20T03:10:53.500Z,98721.75
2022-08-20T03:13:22.153Z,98722.59
2022-08-20T03:15:58.851Z,98729.28
2022-08-20T03:18:32.475Z,98720.59
2022-08-20T03:21:00.091Z,98726.22
2022-08-20T03:23:27.140Z,98726.88
2022-08-20T03:25:54.042Z,98718.16
2022-08-20T03:28:20.966Z,98724.13
2022-08-20T03:30:47.899Z,98724.97
2022-08-20T03:33:16.159Z,98719.41
2022-08-20T03:35:43.415Z,98720.59
2022-08-20T03:38:13.143Z,98730.91
2022-08-20T03:40:41.118Z,98720.25
2022-08-20T03:43:10.337Z,98720.22
2022-08-20T03:45:41.869Z,98724.56
2022-08-20T03:48:12.561Z,98725.78
2022-08-20T03:50:41.769Z,98719.16
2022-08-20T03:53:12.288Z,98710.50
2022-08-20T03:55:46.295Z,98718.38
2022-08-20T03:58:34.611Z,98708.81
2022-08-20T04:01:02.711Z,98714.25
2022-08-20T04:03:29.700Z,98725.31
2022-08-20T04:05:56.477Z,98717.09
2022-08-20T04:08:27.938Z,98718.25
2022-08-20T04:10:59.694Z,98718.25
2022-08-20T04:13:29.800Z,98713.91
2022-08-20T04:16:00.868Z,98726.13
2022-08-20T04:18:28.058Z,98716.66
2022-08-20T04:20:55.389Z,98721.44
2022-08-20T04:23:23.113Z,98721.75
2022-08-20T04:25:50.151Z,98728.38
2022-08-20T04:28:27.097Z,98723.63
2022-08-20T04:30:57.317Z,98729.19
2022-08-20T04:33:35.437Z,98731.47
2022-08-20T04:36:05.586Z,98726.72
2022-08-20T04:38:49.759Z,98739.34
2022-08-20T04:41:23.648Z,98735.47
2022-08-20T04:43:54.075Z,98730.38
2022-08-20T04:46:25.408Z,98723.59
2022-08-20T04:48:52.942Z,98735.06
2022-08-20T04:51:22.913Z,98738.22
2022-08-20T04:53:53.633Z,98744.13
2022-08-20T04:56:24.406Z,98749.28
2022-08-20T04:58:54.551Z,98741.78
2022-08-20T05:01:23.713Z,98741.00
2022-08-20T05:03:53.691Z,98739.81
2022-08-20T05:06:24.639Z,98743.34
2022-08-20T05:08:53.320Z,98746.50
2022-08-20T05:11:35.979Z,98749.22
2022-08-20T05:14:08.514Z,98754.38
2022-08-20T05:16:38.431Z,98758.28
2022-08-20T05:19:09.090Z,98756.31
2022-08-20T05:21:36.406Z,98758.66
2022-08-20T05:24:03.774Z,98760.97
2022-08-20T05:26:30.717Z,98761.31
2022-08-20T05:28:59.300Z,98759.69
2022-08-20T05:31:32.204Z,98763.28
2022-08-20T05:34:12.445Z,98759.78
2022-08-20T05:36:43.457Z,98770.06
2022-08-20T05:39:11.019Z,98759.06
2022-08-20T05:41:39.830Z,98765.44
2022-08-20T05:44:10.763Z,98765.81
2022-08-20T05:46:40.751Z,98757.16
2022-08-20T05:49:10.953Z,98766.69
2022-08-20T05:51:37.961Z,98771.88
2022-08-20T05:54:06.313Z,98777.06
2022-08-20T05:56:34.125Z,98783.03
2022-08-20T05:59:04.125Z,98790.50
2022-08-20T06:01:34.250Z,98777.41
2022-08-20T06:04:20.115Z,98783.03
2022-08-20T06:06:47.798Z,98770.50
2022-08-20T06:09:30.653Z,98771.41
2022-08-20T06:12:01.653Z,98771.44
2022-08-20T06:14:28.941Z,98772.59
2022-08-20T06:17:02.408Z,98772.91
2022-08-20T06:19:32.282Z,98781.09
2022-08-20T06:22:00.590Z,98780.72
2022-08-20T06:24:27.845Z,98781.88
2022-08-20T06:27:01.324Z,98782.63
2022-08-20T06:29:29.910Z,98777.59
2022-08-20T06:31:57.168Z,98779.13
2022-08-20T06:34:28.053Z,98783.88
2022-08-20T06:36:57.238Z,98787.13
2022-08-20T06:39:28.553Z,98790.66
2022-08-20T06:41:58.512Z,98787.22
2022-08-20T06:44:25.927Z,98778.59
2022-08-20T06:46:52.933Z,98777.84
2022-08-20T06:49:19.910Z,98787.38
2022-08-20T06:51:46.686Z,98790.63
2022-08-20T06:54:18.818Z,98792.38
2022-08-20T06:56:45.841Z,98789.28
2022-08-20T06:59:12.885Z,98790.88
2022-08-20T07:01:39.902Z,98789.88
2022-08-20T07:04:08.327Z,98793.50
2022-08-20T07:06:35.159Z,98793.56
2022-08-20T07:09:02.078Z,98798.34
2022-08-20T07:11:29.164Z,98794.34
2022-08-20T07:13:58.721Z,98801.44
2022-08-20T07:16:26.635Z,98802.25
2022-08-20T07:18:53.671Z,98802.31
2022-08-20T07:21:20.656Z,98800.38
2022-08-20T07:23:48.894Z,98804.69
2022-08-20T07:26:17.061Z,98807.09
2022-08-20T07:28:46.894Z,98804.00
2022-08-20T07:31:35.028Z,98811.16
2022-08-20T07:34:03.369Z,98816.22
2022-08-20T07:36:31.196Z,98820.09
2022-08-20T07:38:58.251Z,98810.25
2022-08-20T07:41:25.274Z,98824.50
2022-08-20T07:43:52.379Z,98826.78
2022-08-20T07:46:21.459Z,98830.69
2022-08-20T07:48:52.943Z,98833.78
2022-08-20T07:51:22.260Z,98834.59
2022-08-20T07:53:51.650Z,98836.94
2022-08-20T07:56:24.209Z,98836.91
2022-08-20T07:59:00.008Z,98836.09
2022-08-20T08:01:31.266Z,98832.56
2022-08-20T08:04:00.072Z,98842.88
2022-08-20T08:06:33.789Z,98835.09
2022-08-20T08:09:13.331Z,98833.50
2022-08-20T08:11:57.436Z,98830.78
2022-08-20T08:14:34.122Z,98836.81
2022-08-20T08:17:04.886Z,98832.81
2022-08-20T08:19:39.106Z,98831.56
2022-08-20T08:22:12.375Z,98834.75
2022-08-20T08:24:42.041Z,98832.78
2022-08-20T08:27:24.121Z,98835.44
2022-08-20T08:29:51.006Z,98843.97
2022-08-20T08:32:17.969Z,98846.72
2022-08-20T08:34:47.609Z,98844.47
2022-08-20T08:37:14.479Z,98833.50
2022-08-20T08:39:42.330Z,98835.56
2022-08-20T08:42:42.628Z,98841.22
2022-08-20T08:45:12.577Z,98842.13
2022-08-20T08:47:41.191Z,98842.22
2022-08-20T08:50:50.153Z,98839.00
2022-08-20T08:53:26.225Z,98847.16
2022-08-20T08:55:53.389Z,98854.56
2022-08-20T08:58:20.330Z,98876.97
2022-08-20T09:00:56.426Z,98870.66
2022-08-20T09:03:36.261Z,98874.59
2022-08-20T09:06:04.623Z,98872.81
2022-08-20T09:08:49.797Z,98876.34
2022-08-20T09:11:21.253Z,98877.94
2022-08-20T09:13:52.195Z,98881.56
2022-08-20T09:16:19.029Z,98882.94
2022-08-20T09:18:49.906Z,98885.81
2022-08-20T09:21:17.834Z,98875.16
2022-08-20T09:23:45.085Z,98884.53
2022-08-20T09:26:12.242Z,98878.19
2022-08-20T09:28:39.262Z,98877.53
2022-08-20T09:31:07.056Z,98872.84
2022-08-20T09:33:34.984Z,98878.69
2022-08-20T09:36:02.101Z,98881.69
2022-08-20T09:38:29.103Z,98879.56
2022-08-20T09:40:56.019Z,98877.75
2022-08-20T09:43:29.022Z,98884.06
2022-08-20T09:45:55.927Z,98876.16
2022-08-20T09:48:31.934Z,98879.41
2022-08-20T09:50:59.402Z,98876.53
2022-08-20T09:53:26.333Z,98876.44
2022-08-20T09:55:56.164Z,98870.81
2022-08-20T09:58:53.167Z,98870.78
2022-08-20T10:01:22.501Z,98871.63
2022-08-20T10:03:51.017Z,98866.47
2022-08-20T10:06:20.928Z,98867.06
2022-08-20T10:08:49.864Z,98869.56
2022-08-20T10:11:18.255Z,98860.94
2022-08-20T10:13:45.714Z,98862.97
2022-08-20T10:16:13.386Z,98865.00
2022-08-20T10:18:40.683Z,98862.06
2022-08-20T10:21:12.426Z,98867.88
2022-08-20T10:23:39.469Z,98859.63
2022-08-20T10:26:12.292Z,98866.47
2022-08-20T10:28:40.109Z,98861.13
2022-08-20T10:31:10.386Z,98854.03
2022-08-20T10:33:38.721Z,98857.59
2022-08-20T10:36:16.953Z,98852.19
2022-08-20T10:38:45.365Z,98840.97
2022-08-20T10:41:12.515Z,98837.44
2022-08-20T10:43:39.338Z,98833.03
2022-08-20T10:46:06.913Z,98839.00
2022-08-20T10:48:34.044Z,98839.84
2022-08-20T10:51:01.138Z,98832.56
2022-08-20T10:53:28.112Z,98835.31
2022-08-20T10:55:56.584Z,98830.94
2022-08-20T10:58:25.161Z,98836.88
2022-08-20T11:00:53.136Z,98836.94
2022-08-20T11:03:23.450Z,98835.84
2022-08-20T11:05:50.351Z,98829.84
2022-08-20T11:08:28.630Z,98827.34
2022-08-20T11:11:01.740Z,98828.81
2022-08-20T11:13:31.300Z,98820.47
2022-08-20T11:15:58.334Z,98818.22
2022-08-20T11:18:25.194Z,98811.19
2022-08-20T11:20:52.863Z,98815.56
2022-08-20T11:23:19.905Z,98818.00
2022-08-20T11:25:48.338Z,98826.34
2022-08-20T11:28:16.338Z,98841.44
2022-08-20T11:30:58.263Z,98844.16
2022-08-20T11:33:25.118Z,98851.63
2022-08-20T11:35:52.054Z,98848.41
2022-08-20T11:38:19.650Z,98838.09
2022-08-20T11:40:46.957Z,98843.31
2022-08-20T11:43:16.347Z,98841.38
2022-08-20T11:45:52.801Z,98844.22
2022-08-20T11:48:20.151Z,98852.50
2022-08-20T11:50:48.416Z,98848.50
2022-08-20T11:53:15.304Z,98846.94
2022-08-20T11:55:45.759Z,98842.63
2022-08-20T11:58:12.885Z,98838.66
2022-08-20T12:00:40.438Z,98839.44
2022-08-20T12:03:09.733Z,98839.03
2022-08-20T12:05:42.324Z,98844.16
2022-08-20T12:08:10.065Z,98846.91
2022-08-20T12:10:38.678Z,98846.13
2022-08-20T12:13:07.572Z,98841.75
2022-08-20T12:15:36.665Z,98837.41
2022-08-20T12:18:08.352Z,98836.66
2022-08-20T12:20:39.036Z,98837.84
2022-08-20T12:23:05.955Z,98830.31
2022-08-20T12:25:33.927Z,98826.28
2022-08-20T12:28:00.872Z,98824.78
2022-08-20T12:30:27.886Z,98829.63
2022-08-20T12:32:54.779Z,98827.00
2022-08-20T12:35:22.090Z,98817.94
2022-08-20T12:37:49.280Z,98820.84
2022-08-20T12:40:32.025Z,98816.47
2022-08-20T12:43:02.982Z,98821.59
2022-08-20T12:45:30.797Z,98822.06
2022-08-20T12:48:15.980Z,98823.50
2022-08-20T12:50:45.697Z,98819.53
2022-08-20T12:53:12.979Z,98821.94
2022-08-20T12:55:40.730Z,98814.13
2022-08-20T12:58:10.821Z,98819.34
2022-08-20T13:00:50.335Z,98812.25
2022-08-20T13:03:20.575Z,98809.75
2022-08-20T13:05:49.396Z,98788.31
2022-08-20T13:08:19.103Z,98797.38
2022-08-20T13:10:48.145Z,98799.59
2022-08-20T13:13:20.525Z,98805.44
2022-08-20T13:15:50.679Z,98800.72
2022-08-20T13:18:18.603Z,98805.09
2022-08-20T13:20:46.072Z,98793.34
2022-08-20T13:23:13.153Z,98797.72
2022-08-20T13:25:40.229Z,98791.09
2022-08-20T13:28:07.149Z,98793.63
2022-08-20T13:30:38.593Z,98805.09
2022-08-20T13:33:05.514Z,98797.53
2022-08-20T13:35:32.838Z,98782.44
2022-08-20T13:37:59.762Z,98786.13
2022-08-20T13:40:26.890Z,98787.63
2022-08-20T13:42:53.929Z,98782.78
2022-08-20T13:45:21.591Z,98777.94
2022-08-20T13:47:54.642Z,98768.25
2022-08-20T13:50:25.502Z,98773.00
2022-08-20T13:52:53.024Z,98778.97
2022-08-20T13:55:23.270Z,98769.47
2022-08-20T13:57:51.377Z,98779.97
2022-08-20T14:00:31.387Z,98778.97
2022-08-20T14:03:04.822Z,98777.56
2022-08-20T14:05:33.148Z,98776.41
2022-08-20T14:08:17.131Z,98777.81
2022-08-20T14:10:45.197Z,98770.84
2022-08-20T14:13:15.810Z,98776.59
2022-08-20T14:15:44.177Z,98779.91
2022-08-20T14:18:11.860Z,98772.41
2022-08-20T14:20:39.014Z,98776.44
2022-08-20T14:23:06.272Z,98766.75
2022-08-20T14:25:34.629Z,98765.31
2022-08-20T14:28:18.288Z,98782.09
2022-08-20T14:30:52.953Z,98776.38
2022-08-20T14:33:22.546Z,98769.66
2022-08-20T14:35:49.665Z,98781.03
2022-08-20T14:38:16.514Z,98780.72
2022-08-20T14:40:43.328Z,98770.75
2022-08-20T14:43:10.240Z,98772.19
2022-08-20T14:45:37.179Z,98780.41
2022-08-20T14:48:09.223Z,98780.19
2022-08-20T14:50:36.440Z,98775.25
2022-08-20T14:53:04.472Z,98776.31
2022-08-20T14:55:37.437Z,98770.31
2022-08-20T14:58:13.211Z,98768.25
2022-08-20T15:00:40.826Z,98763.91
2022-08-20T15:03:07.905Z,98757.44
2022-08-20T15:05:39.510Z,98762.34
2022-08-20T15:08:10.590Z,98755.59
2022-08-20T15:10:39.541Z,98744.94
2022-08-20T15:13:06.836Z,98760.09
2022-08-20T15:15:33.898Z,98752.44
2022-08-20T15:18:01.202Z,98752.41
2022-08-20T15:20:33.385Z,98751.66
2022-08-20T15:23:01.111Z,98756.34
2022-08-20T15:25:36.893Z,98740.19
2022-08-20T15:28:09.811Z,98741.88
2022-08-20T15:30:40.934Z,98751.41
2022-08-20T15:33:10.533Z,98744.72
2022-08-20T15:35:38.004Z,98756.09
2022-08-20T15:38:05.064Z,98744.69
2022-08-20T15:40:33.391Z,98740.88
2022-08-20T15:43:03.242Z,98734.19
2022-08-20T15:45:31.901Z,98723.63
2022-08-20T15:48:20.179Z,98745.22
2022-08-20T15:51:15.138Z,98739.75
2022-08-20T15:53:53.851Z,98736.97
2022-08-20T15:57:20.413Z,98737.06
2022-08-20T16:00:20.670Z,98740.28
2022-08-20T16:03:55.248Z,98734.50
2022-08-20T16:06:31.983Z,98744.50
2022-08-20T16:09:26.102Z,98747.03
2022-08-20T16:12:16.570Z,98745.16
2022-08-20T16:14:48.748Z,98743.53
2022-08-20T16:17:23.690Z,98751.50
2022-08-20T16:20:08.163Z,98752.38
2022-08-20T16:22:43.268Z,98744.41
2022-08-20T16:25:13.518Z,98739.72
2022-08-20T16:28:40.860Z,98741.41
2022-08-20T16:31:14.546Z,98744.59
2022-08-20T16:34:33.440Z,98747.78
2022-08-20T16:37:41.339Z,98740.69
2022-08-20T16:40:44.550Z,98756.66
2022-08-20T16:43:33.866Z,98750.22
2022-08-20T16:46:12.217Z,98756.22
2022-08-20T16:48:50.619Z,98755.03
2022-08-20T16:51:25.809Z,98761.84
2022-08-20T16:53:52.630Z,98756.03
2022-08-20T16:56:47.869Z,98760.03
2022-08-20T16:59:27.214Z,98757.22
2022-08-20T17:02:08.300Z,98766.38
2022-08-20T17:04:59.326Z,98758.91
2022-08-20T17:07:43.540Z,98758.53
2022-08-20T17:10:27.184Z,98761.38
2022-08-20T17:13:19.129Z,98757.06
2022-08-20T17:15:56.359Z,98753.56
2022-08-20T17:18:47.009Z,98755.91
2022-08-20T17:21:38.105Z,98755.53
2022-08-20T17:24:30.213Z,98759.47
2022-08-20T17:27:14.767Z,98756.28
2022-08-20T17:29:53.270Z,98754.72
2022-08-20T17:32:28.847Z,98757.94
2022-08-20T17:35:00.158Z,98760.72
2022-08-20T17:37:36.221Z,98763.50
2022-08-20T17:40:24.430Z,98761.16
2022-08-20T17:43:03.057Z,98762.38
2022-08-20T17:45:43.835Z,98769.09
2022-08-20T17:48:38.813Z,98765.97
2022-08-20T17:51:15.133Z,98772.72
2022-08-20T17:53:52.217Z,98771.94
2022-08-20T17:56:31.510Z,98764.41
2022-08-20T17:59:47.715Z,98766.81
2022-08-20T18:02:17.297Z,98775.97
2022-08-20T18:04:47.152Z,98772.41
2022-08-20T18:07:24.373Z,98780.34
2022-08-20T18:10:05.223Z,98779.56
2022-08-20T18:12:56.451Z,98777.56
2022-08-20T18:15:31.187Z,98775.22
2022-08-20T18:18:26.013Z,98777.22
2022-08-20T18:21:06.425Z,98775.63
2022-08-20T18:24:14.793Z,98783.16
2022-08-20T18:27:15.276Z,98780.38
2022-08-20T18:29:46.664Z,98780.00
2022-08-20T18:32:38.252Z,98781.22
2022-08-20T18:35:33.696Z,98777.97
2022-08-20T18:38:21.834Z,98792.22
2022-08-20T18:40:53.224Z,98793.75
2022-08-20T18:43:30.460Z,98804.00
2022-08-20T18:46:12.097Z,98804.00
2022-08-20T18:48:53.837Z,98804.34
2022-08-20T18:51:42.453Z,98808.25
2022-08-20T18:54:32.970Z,98810.94
2022-08-20T18:57:20.569Z,98808.53
2022-08-20T18:59:59.950Z,98810.88
2022-08-20T19:02:33.275Z,98820.34
2022-08-20T19:05:12.196Z,98823.03
2022-08-20T19:07:51.197Z,98824.16
2022-08-20T19:10:43.472Z,98823.66
2022-08-20T19:13:50.979Z,98830.75
2022-08-20T19:16:42.235Z,98827.53
2022-08-20T19:19:27.524Z,98827.81
2022-08-20T19:21:57.224Z,98832.97
2022-08-20T19:24:31.452Z,98830.91
2022-08-20T19:27:04.710Z,98831.56
2022-08-20T19:29:40.149Z,98837.72
2022-08-20T19:32:17.969Z,98829.81
2022-08-20T19:35:02.489Z,98823.50
2022-08-20T19:37:44.445Z,98832.50
2022-08-20T19:40:39.329Z,98840.72
2022-08-20T19:43:15.839Z,98843.78
2022-08-20T19:45:54.268Z,98845.22
2022-08-20T19:48:54.809Z,98835.66
2022-08-20T19:51:47.947Z,98834.84
2022-08-20T19:54:22.106Z,98835.47
2022-08-20T19:56:49.149Z,98837.69
2022-08-20T19:59:22.634Z,98838.00
2022-08-20T20:02:02.928Z,98836.66
2022-08-20T20:04:54.936Z,98836.34
2022-08-20T20:07:48.146Z,98832.38
2022-08-20T20:10:35.620Z,98842.03
2022-08-20T20:13:18.071Z,98845.25
2022-08-20T20:15:46.121Z,98837.34
2022-08-20T20:18:14.116Z,98843.66
2022-08-20T20:20:57.466Z,98839.25
2022-08-20T20:23:45.673Z,98841.63
2022-08-20T20:26:20.149Z,98843.56
2022-08-20T20:28:53.488Z,98847.88
2022-08-20T20:31:36.579Z,98842.56
2022-08-20T20:34:14.689Z,98841.75
2022-08-20T20:36:46.379Z,98831.47
2022-08-20T20:39:39.916Z,98840.00
2022-08-20T20:42:32.818Z,98831.91
2022-08-20T20:45:00.215Z,98833.78
2022-08-20T20:47:32.332Z,98823.84
2022-08-20T20:50:05.193Z,98826.88
2022-08-20T20:52:36.264Z,98830.66
2022-08-20T20:55:12.385Z,98823.41
2022-08-20T20:57:39.449Z,98820.88
2022-08-20T21:00:14.830Z,98830.31
2022-08-20T21:02:43.292Z,98831.78
2022-08-20T21:05:12.620Z,98829.03
2022-08-20T21:07:51.822Z,98832.09
2022-08-20T21:10:23.058Z,98831.28
2022-08-20T21:12:52.998Z,98835.66
2022-08-20T21:15:23.143Z,98833.16
2022-08-20T21:17:50.536Z,98837.03
2022-08-20T21:20:18.380Z,98834.41
2022-08-20T21:22:45.378Z,98838.84
2022-08-20T21:25:13.077Z,98830.84
2022-08-20T21:27:47.044Z,98833.56
2022-08-20T21:30:16.365Z,98833.78
2022-08-20T21:32:43.338Z,98828.22
2022-08-20T21:35:11.379Z,98844.06
2022-08-20T21:37:38.740Z,98837.69
2022-08-20T21:40:10.075Z,98843.56
2022-08-20T21:42:39.690Z,98848.13
2022-08-20T21:45:11.491Z,98845.81
2022-08-20T21:47:38.305Z,98844.53
2022-08-20T21:50:07.888Z,98852.72
2022-08-20T21:52:35.843Z,98850.25
2022-08-20T21:55:02.674Z,98858.22
2022-08-20T21:57:33.242Z,98859.72
2022-08-20T22:00:02.366Z,98859.84
2022-08-20T22:02:30.444Z,98852.84
2022-08-20T22:04:57.310Z,98859.84
2022-08-20T22:07:24.198Z,98859.41
2022-08-20T22:09:51.078Z,98867.56
2022-08-20T22:12:24.030Z,98859.88
2022-08-20T22:14:51.165Z,98861.97
2022-08-20T22:17:19.103Z,98870.41
2022-08-20T22:19:46.005Z,98872.72
2022-08-20T22:22:15.572Z,98866.50
2022-08-20T22:24:42.492Z,98868.38
2022-08-20T22:27:09.404Z,98870.69
2022-08-20T22:29:36.351Z,98861.28
2022-08-20T22:32:04.039Z,98865.56
2022-08-20T22:34:36.157Z,98865.00
2022-08-20T22:37:03.859Z,98868.91
2022-08-20T22:39:30.888Z,98872.75
2022-08-20T22:41:57.749Z,98875.13
2022-08-20T22:44:24.592Z,98879.31
2022-08-20T22:46:58.992Z,98871.31
2022-08-20T22:49:31.796Z,98875.66
2022-08-20T22:51:58.901Z,98878.16
2022-08-20T22:54:26.724Z,98877.16
2022-08-20T22:56:54.921Z,98881.50
2022-08-20T22:59:25.314Z,98879.47
2022-08-20T23:01:53.261Z,98875.41
2022-08-20T23:04:26.512Z,98873.19
2022-08-20T23:06:55.090Z,98872.56
2022-08-20T23:09:22.579Z,98863.78
2022-08-20T23:11:50.167Z,98868.75
2022-08-20T23:14:17.552Z,98874.50
2022-08-20T23:16:49.045Z,98874.50
2022-08-20T23:19:22.330Z,98871.69
2022-08-20T23:21:51.255Z,98872.72
2022-08-20T23:24:18.893Z,98869.84
2022-08-20T23:26:52.774Z,98877.22
2022-08-20T23:29:22.566Z,98868.59
2022-08-20T23:31:56.795Z,98865.91
2022-08-20T23:34:25.324Z,98862.81
2022-08-20T23:36:53.950Z,98866.22
2022-08-20T23:39:21.309Z,98858.56
2022-08-20T23:41:48.432Z,98857.81
2022-08-20T23:44:26.244Z,98858.94
2022-08-20T23:47:01.923Z,98854.47
2022-08-20T23:49:33.138Z,98861.53
2022-08-20T23:52:00.974Z,98860.22
2022-08-20T23:54:30.469Z,98860.13
2022-08-20T23:56:57.661Z,98864.88
2022-08-20T23:59:25.587Z,98860.41
